Time;durP1;ratioP1;P1;durP2;ratioP2;P2;SDS_P1;SDS_P2;PMS_P1;PMS_P2;Temp;Humidity;BMP_temperature;BMP_pressure;BME280_temperature;BME280_humidity;BME280_pressure;Samples;Min_cycle;Max_cycle;Signal;HPM_P1;HPM_P2
2022/10/18 03:56:32;;;;;;;3.13;2.88;;;;;;;4.71;76.34;102964.38;5117691;27;20419;-77
2022/10/18 03:58:58;;;;;;;5.10;2.35;;;;;;;4.74;75.97;102949.06;5066985;28;20524;-77
2022/10/18 04:01:23;;;;;;;5.65;3.28;;;;;;;4.94;75.54;102956.13;5031671;28;20032;-79
2022/10/18 04:03:48;;;;;;;4.30;3.88;;;;;;;5.00;74.99;102958.75;5066502;28;20086;-79
2022/10/18 04:06:14;;;;;;;10.50;4.97;;;;;;;4.98;74.69;102942.50;5066193;28;20107;-79
2022/10/18 04:08:40;;;;;;;5.60;3.13;;;;;;;5.25;74.33;102958.19;5049707;28;20033;-80
2022/10/18 04:11:09;;;;;;;5.93;4.05;;;;;;;5.12;73.94;102943.53;5032805;28;20053;-77
2022/10/18 04:13:35;;;;;;;7.60;4.63;;;;;;;5.26;73.41;102959.91;5049810;28;20104;-76
2022/10/18 04:16:01;;;;;;;10.45;6.47;;;;;;;5.41;72.92;102965.22;5049930;28;20534;-75
2022/10/18 04:18:26;;;;;;;8.90;5.00;;;;;;;5.48;72.90;102961.81;5066136;28;20078;-76
2022/10/18 04:20:52;;;;;;;7.03;4.40;;;;;;;5.43;72.73;102954.94;5049175;28;20033;-75
2022/10/18 04:23:17;;;;;;;6.38;4.35;;;;;;;5.48;72.49;102950.69;5049679;28;20040;-75
2022/10/18 04:25:43;;;;;;;10.38;6.38;;;;;;;5.38;72.96;102939.47;5048969;28;20083;-75
2022/10/18 04:28:08;;;;;;;9.35;4.15;;;;;;;5.38;72.61;102936.91;5065988;28;20036;-81
2022/10/18 04:30:34;;;;;;;7.20;4.65;;;;;;;5.48;72.28;102945.56;5049039;28;20078;-83
2022/10/18 04:32:59;;;;;;;11.18;5.05;;;;;;;5.46;73.55;102963.53;5032616;28;20489;-88
2022/10/18 04:35:26;;;;;;;12.70;5.25;;;;;;;5.52;72.60;102956.75;5049169;28;20538;-84
2022/10/18 04:37:52;;;;;;;6.55;3.67;;;;;;;5.46;72.93;102960.97;5032714;28;20382;-81
2022/10/18 04:40:18;;;;;;;6.40;3.58;;;;;;;5.39;73.16;102951.47;5048756;28;20116;-81
2022/10/18 04:42:44;;;;;;;10.30;5.07;;;;;;;5.54;72.71;102973.00;5047946;28;20391;-84
2022/10/18 04:45:10;;;;;;;7.72;5.20;;;;;;;5.35;72.78;102951.44;5049865;28;20031;-79
2022/10/18 04:47:35;;;;;;;7.25;4.85;;;;;;;5.52;72.48;102972.16;5047892;28;20489;-79
2022/10/18 04:50:01;;;;;;;10.35;6.60;;;;;;;5.42;72.78;102976.34;5064448;28;20021;-79
2022/10/18 04:52:26;;;;;;;10.30;5.47;;;;;;;5.45;72.79;102981.50;5098558;28;20032;-79
2022/10/18 04:54:51;;;;;;;7.95;4.63;;;;;;;5.49;72.57;102983.22;5048495;28;20514;-85
2022/10/18 04:57:17;;;;;;;7.15;4.47;;;;;;;5.47;72.52;102983.22;5051411;28;20048;-89
2022/10/18 04:59:42;;;;;;;6.68;4.18;;;;;;;5.45;72.16;102977.22;5046952;28;20521;-86
2022/10/18 05:02:08;;;;;;;10.93;5.50;;;;;;;5.42;72.62;102979.75;5046725;28;20406;-81
2022/10/18 05:04:34;;;;;;;6.93;5.38;;;;;;;5.50;72.69;102981.53;5030960;28;20025;-85
2022/10/18 05:06:59;;;;;;;8.43;4.68;;;;;;;5.40;72.49;102978.84;5040516;28;20110;-85
2022/10/18 05:09:25;;;;;;;12.43;6.20;;;;;;;5.31;73.48;102978.78;5032511;28;20040;-87
2022/10/18 05:11:50;;;;;;;9.55;7.07;;;;;;;5.34;73.12;102976.25;5051174;28;20036;-85
2022/10/18 05:14:16;;;;;;;8.25;4.63;;;;;;;5.36;73.23;102977.13;5034485;28;20067;-85
2022/10/18 05:16:41;;;;;;;14.38;5.75;;;;;;;5.32;73.35;102962.53;5035279;28;20390;-85
2022/10/18 05:19:07;;;;;;;9.82;6.03;;;;;;;5.50;73.10;102977.25;5018166;28;20083;-80
2022/10/18 05:21:33;;;;;;;10.98;5.80;;;;;;;5.57;72.65;102980.75;5054232;28;20029;-84
2022/10/18 05:23:58;;;;;;;18.10;7.82;;;;;;;5.60;72.38;102975.63;5036222;28;20029;-82
2022/10/18 05:26:23;;;;;;;21.23;10.57;;;;;;;5.59;72.88;102974.75;5054209;28;20020;-81
2022/10/18 05:28:49;;;;;;;16.73;7.03;;;;;;;5.80;72.66;102984.41;5054142;28;20482;-82
2022/10/18 05:31:15;;;;;;;23.75;12.77;;;;;;;5.71;74.34;102961.19;5048352;28;20044;-83
2022/10/18 05:33:40;;;;;;;23.27;11.90;;;;;;;5.86;74.74;102987.00;5032882;28;20112;-78
2022/10/18 05:36:06;;;;;;;12.95;8.23;;;;;;;5.86;74.39;102976.72;5044078;28;20028;-81
2022/10/18 05:38:31;;;;;;;15.70;7.45;;;;;;;5.83;74.23;102969.00;5064667;28;20025;-87
2022/10/18 05:40:58;;;;;;;11.25;7.75;;;;;;;5.90;74.26;102991.34;5025378;28;20037;-86
2022/10/18 05:43:27;;;;;;;15.43;8.20;;;;;;;5.89;74.47;102993.84;5049403;28;20029;-88
2022/10/18 05:45:52;;;;;;;16.08;6.90;;;;;;;5.95;74.46;102993.94;5037960;28;20087;-84
2022/10/18 05:48:18;;;;;;;22.08;10.15;;;;;;;5.83;74.76;102988.69;5053470;28;20028;-81
2022/10/18 05:50:44;;;;;;;13.40;9.00;;;;;;;5.78;74.74;102991.19;5043458;28;20036;-83
2022/10/18 05:53:09;;;;;;;13.88;9.45;;;;;;;5.87;75.14;102996.41;5040960;28;20033;-81
2022/10/18 05:55:35;;;;;;;12.77;8.65;;;;;;;5.89;75.19;103005.00;5031316;28;20053;-81
2022/10/18 05:58:01;;;;;;;14.98;7.43;;;;;;;5.83;74.88;102983.56;5019700;28;20029;-79
2022/10/18 06:00:27;;;;;;;10.65;6.18;;;;;;;5.86;76.15;103006.69;5042160;28;20032;-90
2022/10/18 06:02:52;;;;;;;12.80;9.10;;;;;;;5.91;76.45;103005.94;5020170;28;20037;-95
2022/10/18 06:05:18;;;;;;;12.32;7.10;;;;;;;5.84;75.72;103009.25;5052338;28;20036;-88
2022/10/18 06:07:43;;;;;;;12.88;8.18;;;;;;;5.83;76.01;103007.53;5051206;28;20032;-83
2022/10/18 06:10:09;;;;;;;12.30;7.82;;;;;;;5.76;75.66;102991.19;5057994;28;20119;-83
2022/10/18 06:12:34;;;;;;;11.35;7.15;;;;;;;5.89;75.98;103009.28;5033570;28;20036;-77
2022/10/18 06:15:02;;;;;;;14.45;8.60;;;;;;;5.94;76.40;103007.66;5043372;28;20028;-84
2022/10/18 06:17:27;;;;;;;14.38;8.27;;;;;;;5.97;76.76;103007.66;5066130;28;20060;-92
2022/10/18 06:19:53;;;;;;;20.60;8.98;;;;;;;6.07;76.51;103008.59;5031316;28;20062;-85
2022/10/18 06:22:18;;;;;;;15.60;8.35;;;;;;;6.11;76.38;103000.09;5036626;28;20035;-83
2022/10/18 06:24:44;;;;;;;16.35;9.40;;;;;;;6.07;76.26;102988.91;5043923;28;20032;-84
2022/10/18 06:27:09;;;;;;;22.75;10.75;;;;;;;5.95;76.54;102955.41;5036466;28;20417;-79
2022/10/18 06:29:35;;;;;;;16.92;7.65;;;;;;;6.26;76.38;102995.03;5053287;28;20497;-87
2022/10/18 06:32:01;;;;;;;15.05;9.48;;;;;;;6.37;77.50;103008.81;5032433;28;20037;-79
2022/10/18 06:34:26;;;;;;;14.88;8.00;;;;;;;6.42;76.44;102991.72;5049674;28;20471;-81
2022/10/18 06:36:52;;;;;;;11.73;8.02;;;;;;;6.60;76.38;102996.13;5051855;28;20065;-89
2022/10/18 06:39:17;;;;;;;12.90;7.57;;;;;;;6.75;76.39;103000.47;5015713;28;20051;-93
2022/10/18 06:41:43;;;;;;;13.30;7.47;;;;;;;6.92;76.51;103006.53;5059342;28;20422;-92
2022/10/18 06:44:13;;;;;;;17.60;8.55;;;;;;;7.12;76.09;102999.75;5036487;28;20037;-86
2022/10/18 06:46:41;;;;;;;15.30;7.93;;;;;;;7.24;75.61;102990.34;5052670;28;20392;-82
2022/10/18 06:49:07;;;;;;;16.25;7.78;;;;;;;7.08;75.87;102963.69;5022353;28;20571;-85
2022/10/18 06:51:32;;;;;;;13.45;8.55;;;;;;;7.50;75.62;103011.88;5052100;28;20032;-88
2022/10/18 06:53:58;;;;;;;12.85;7.05;;;;;;;7.71;74.63;103014.47;5050697;28;20130;-79
2022/10/18 06:56:23;;;;;;;15.98;8.35;;;;;;;7.65;74.37;103004.16;5035382;28;20421;-82
2022/10/18 06:58:49;;;;;;;17.27;8.73;;;;;;;7.88;74.15;103011.91;5064144;28;20067;-86
2022/10/18 07:01:15;;;;;;;21.13;9.50;;;;;;;8.05;73.21;103014.47;5030538;28;20025;-94
2022/10/18 07:03:41;;;;;;;18.20;9.63;;;;;;;8.18;72.45;102998.16;5028697;28;20478;-92
2022/10/18 07:06:07;;;;;;;20.63;9.90;;;;;;;8.30;72.00;102990.41;5019955;28;20047;-84
2022/10/18 07:08:33;;;;;;;19.17;10.73;;;;;;;8.42;71.89;102999.84;5059226;28;20032;-86
2022/10/18 07:10:58;;;;;;;18.27;10.38;;;;;;;8.38;72.13;103005.91;5024926;28;20154;-82
2022/10/18 07:13:24;;;;;;;18.23;9.30;;;;;;;8.45;71.52;102984.38;5056398;28;20478;-82
2022/10/18 07:16:10;;;;;;;23.23;11.60;;;;;;;8.62;71.25;103012.72;5014551;28;20035;-85
2022/10/18 07:18:43;;;;;;;14.68;8.88;;;;;;;8.48;70.77;102983.53;5045848;28;20036;-84
2022/10/18 07:21:10;;;;;;;16.13;9.27;;;;;;;8.64;70.74;102992.91;5035468;28;20028;-89
2022/10/18 07:23:37;;;;;;;16.85;10.13;;;;;;;8.82;70.11;102984.25;5031963;28;20513;-80
2022/10/18 07:26:04;;;;;;;18.40;9.25;;;;;;;9.03;69.26;103002.22;5034318;28;20039;-80
2022/10/18 07:28:29;;;;;;;14.73;7.65;;;;;;;9.01;69.73;102995.34;5051200;28;20078;-83
2022/10/18 07:30:55;;;;;;;11.57;7.13;;;;;;;9.03;69.76;102993.63;5046807;28;20501;-86
2022/10/18 07:33:20;;;;;;;14.63;8.80;;;;;;;9.21;69.46;102998.69;5016174;28;20025;-89
2022/10/18 07:35:46;;;;;;;19.67;9.48;;;;;;;9.26;69.49;102991.78;5028074;28;20032;-83
2022/10/18 07:38:12;;;;;;;25.35;10.40;;;;;;;9.27;69.40;102995.22;5034766;28;20048;-88
2022/10/18 07:40:37;;;;;;;16.85;9.38;;;;;;;9.48;68.66;102983.03;5035131;28;20108;-85
2022/10/18 07:43:03;;;;;;;17.08;9.25;;;;;;;9.58;68.61;102977.78;5025057;28;20499;-83
2022/10/18 07:45:28;;;;;;;24.52;11.07;;;;;;;9.47;68.37;102945.16;5060653;28;20036;-82
2022/10/18 07:47:57;;;;;;;15.20;10.10;;;;;;;9.89;67.88;102981.00;5064706;28;20024;-91
2022/10/18 07:50:22;;;;;;;12.23;7.85;;;;;;;10.00;68.32;102967.09;5020159;28;20031;-85
2022/10/18 07:52:48;;;;;;;14.77;7.35;;;;;;;10.20;68.63;102979.84;5037248;28;20041;-87
2022/10/18 07:55:14;;;;;;;15.38;8.45;;;;;;;10.18;68.42;102970.38;5031002;28;20110;-93
2022/10/18 07:57:39;;;;;;;21.20;8.88;;;;;;;10.21;69.46;102970.34;5043247;28;20528;-83
2022/10/18 08:00:05;;;;;;;16.73;8.30;;;;;;;10.37;69.64;102966.75;5061328;28;20029;-84
2022/10/18 08:02:31;;;;;;;12.32;8.35;;;;;;;10.40;69.16;102960.69;5068622;28;20142;-80
2022/10/18 08:04:56;;;;;;;16.38;8.77;;;;;;;10.56;68.64;102959.66;5057401;28;20502;-81
2022/10/18 08:07:22;;;;;;;15.60;8.13;;;;;;;10.58;67.96;102982.03;5013721;28;20056;-83
2022/10/18 08:09:47;;;;;;;15.52;8.10;;;;;;;10.43;68.12;102963.25;5031249;28;20071;-84
2022/10/18 08:12:14;;;;;;;31.02;11.63;;;;;;;10.57;68.17;102984.66;5040436;28;20025;-76
2022/10/18 08:14:40;;;;;;;13.77;8.68;;;;;;;10.72;68.15;102968.09;5053615;28;20032;-89
2022/10/18 08:17:05;;;;;;;18.48;8.77;;;;;;;10.70;68.13;102939.63;5050932;28;20025;-78
2022/10/18 08:19:31;;;;;;;22.80;9.85;;;;;;;10.92;67.68;102971.28;5054679;28;20066;-80
2022/10/18 08:21:56;;;;;;;17.25;9.63;;;;;;;11.03;67.96;102977.19;5016518;28;20021;-78
2022/10/18 08:24:22;;;;;;;20.02;10.52;;;;;;;11.13;67.68;102960.63;5065193;28;20043;-79
2022/10/18 08:26:48;;;;;;;21.48;10.93;;;;;;;11.14;67.47;102957.16;5044055;28;20095;-78
2022/10/18 08:29:13;;;;;;;21.02;11.07;;;;;;;11.33;67.37;102965.53;5051238;28;20126;-84
2022/10/18 08:31:39;;;;;;;21.98;9.27;;;;;;;11.46;66.49;102963.59;5051287;28;20478;-90
2022/10/18 08:34:04;;;;;;;19.10;10.15;;;;;;;11.50;66.19;102957.47;5034791;28;20037;-83
2022/10/18 08:36:30;;;;;;;15.70;9.20;;;;;;;11.51;65.60;102948.00;5051104;28;20067;-79
2022/10/18 08:38:55;;;;;;;19.92;9.88;;;;;;;11.75;65.00;102961.41;5059563;28;20115;-81
2022/10/18 08:41:44;;;;;;;19.98;8.63;;;;;;;11.95;64.78;102949.84;5054548;28;20045;-78
2022/10/18 08:44:21;;;;;;;19.10;8.65;;;;;;;11.93;64.17;102929.13;5068331;28;20032;-80
2022/10/18 08:46:48;;;;;;;21.30;10.75;;;;;;;12.03;64.19;102914.25;5052115;28;20112;-84
2022/10/18 08:49:30;;;;;;;16.02;9.23;;;;;;;12.28;63.45;102914.63;5046439;28;20520;-81
2022/10/18 08:51:56;;;;;;;20.10;10.50;;;;;;;12.61;62.40;102918.31;5037417;28;20032;-78
2022/10/18 08:54:33;;;;;;;15.63;9.00;;;;;;;12.74;61.41;102924.94;5035820;28;20091;-78
2022/10/18 08:57:01;;;;;;;15.80;9.02;;;;;;;12.68;60.98;102893.88;5062370;28;20116;-82
2022/10/18 08:59:33;;;;;;;23.73;10.50;;;;;;;12.79;60.52;102924.84;5022864;28;20044;-79
2022/10/18 09:02:02;;;;;;;16.08;8.48;;;;;;;12.89;60.40;102908.19;5039609;28;20406;-80
2022/10/18 09:04:50;;;;;;;22.10;9.52;;;;;;;13.09;60.23;102918.97;5055558;28;20029;-83
2022/10/18 09:07:24;;;;;;;23.30;11.02;;;;;;;13.01;59.88;102912.25;5050676;28;20482;-87
2022/10/18 09:10:09;;;;;;;20.30;9.45;;;;;;;13.17;59.75;102911.84;5068357;28;20025;-78
2022/10/18 09:12:46;;;;;;;12.98;7.95;;;;;;;13.20;59.40;102900.56;5064874;28;20158;-81
2022/10/18 09:15:24;;;;;;;18.40;9.38;;;;;;;13.26;59.43;102896.94;5051778;28;20028;-81
2022/10/18 09:18:19;;;;;;;27.33;11.95;;;;;;;13.55;59.26;102897.06;5054431;28;20025;-85
2022/10/18 09:20:49;;;;;;;17.65;9.27;;;;;;;13.69;58.36;102875.94;5042108;28;20534;-84
2022/10/18 09:24:04;;;;;;;16.63;8.57;;;;;;;13.94;56.98;102897.78;5039264;28;20025;-81
2022/10/18 09:26:35;;;;;;;16.67;7.68;;;;;;;13.97;56.46;102897.72;5019523;28;20440;-85
2022/10/18 09:29:31;;;;;;;19.35;9.40;;;;;;;14.07;56.58;102898.31;5018057;28;20025;-82
2022/10/18 09:32:03;;;;;;;16.42;9.05;;;;;;;14.17;56.71;102898.94;5054696;28;20414;-82
2022/10/18 09:34:49;;;;;;;17.70;9.15;;;;;;;14.28;56.12;102883.84;5030455;28;20051;-77
2022/10/18 09:37:17;;;;;;;17.25;9.25;;;;;;;14.39;55.98;102881.78;5051894;28;20067;-85
2022/10/18 09:39:42;;;;;;;18.25;8.95;;;;;;;14.42;55.81;102881.69;5034025;28;20574;-81
2022/10/18 09:42:19;;;;;;;14.45;8.70;;;;;;;14.19;55.18;102824.25;5018180;28;20036;-83
2022/10/18 09:44:47;;;;;;;18.95;8.35;;;;;;;14.59;54.21;102863.84;5054095;28;20032;-82
2022/10/18 09:47:33;;;;;;;16.42;9.15;;;;;;;14.78;53.79;102882.38;5058830;28;20086;-86
2022/10/18 09:50:21;;;;;;;10.55;6.18;;;;;;;14.98;53.20;102873.94;5047071;28;20043;-88
2022/10/18 09:53:18;;;;;;;22.73;9.60;;;;;;;14.98;52.89;102879.16;5058510;28;20064;-85
2022/10/18 09:56:05;;;;;;;14.93;6.85;;;;;;;15.16;52.77;102872.50;5038771;28;20505;-81
2022/10/18 09:58:51;;;;;;;16.80;9.95;;;;;;;15.19;52.90;102870.63;5056796;28;20512;-88
2022/10/18 10:01:28;;;;;;;16.35;8.98;;;;;;;15.31;52.54;102855.50;5048275;28;20123;-85
2022/10/18 10:03:53;;;;;;;44.67;19.80;;;;;;;15.37;52.16;102840.50;5019460;28;20029;-82
2022/10/18 10:06:28;;;;;;;32.55;16.55;;;;;;;15.68;51.46;102855.13;5062706;28;20060;-86
2022/10/18 10:08:59;;;;;;;17.27;8.52;;;;;;;15.75;51.00;102840.97;5058306;28;20024;-85
2022/10/18 10:11:44;;;;;;;20.17;10.73;;;;;;;15.89;50.71;102830.00;5046987;28;20115;-86
2022/10/18 10:14:16;;;;;;;17.08;9.43;;;;;;;15.95;50.73;102829.81;5069403;28;20029;-77
2022/10/18 10:16:51;;;;;;;;;;;;;;;16.04;50.15;102832.09;5053322;28;20119;-82
2022/10/18 10:19:20;;;;;;;14.35;7.45;;;;;;;16.15;50.52;102827.31;5054809;28;19967;-80
2022/10/18 10:21:49;;;;;;;20.50;10.07;;;;;;;16.34;50.28;102817.88;5068202;28;20097;-81
2022/10/18 10:24:28;;;;;;;18.17;9.38;;;;;;;16.50;49.54;102809.41;5053069;28;20029;-85
2022/10/18 10:27:01;;;;;;;15.75;8.05;;;;;;;16.71;49.19;102799.91;5052039;28;20033;-83
2022/10/18 10:29:47;;;;;;;16.88;9.40;;;;;;;16.75;48.70;102783.22;5065962;28;20039;-91
2022/10/18 10:32:14;;;;;;;17.55;9.15;;;;;;;16.83;47.71;102792.44;5050418;28;20037;-84
2022/10/18 10:34:40;;;;;;;16.95;8.90;;;;;;;16.94;48.43;102788.53;5046612;28;20036;-85
2022/10/18 10:37:29;;;;;;;17.13;9.98;;;;;;;17.08;48.34;102781.78;5067720;28;20021;-86
2022/10/18 10:40:19;;;;;;;19.88;9.60;;;;;;;17.30;46.73;102776.50;5048939;28;20029;-79
2022/10/18 10:43:00;;;;;;;17.92;8.15;;;;;;;17.24;47.31;102775.94;5050522;28;20044;-78
2022/10/18 10:45:32;;;;;;;18.83;9.00;;;;;;;17.01;46.80;102716.75;5033374;28;20067;-78
2022/10/18 10:48:03;;;;;;;17.05;8.30;;;;;;;17.35;46.95;102750.16;5035233;28;20021;-86
2022/10/18 10:50:29;;;;;;;15.85;8.80;;;;;;;17.51;45.83;102742.50;5016114;28;20409;-86
2022/10/18 10:52:54;;;;;;;17.23;8.75;;;;;;;17.60;45.96;102736.81;5035012;28;20029;-88
2022/10/18 10:55:31;;;;;;;25.17;10.50;;;;;;;17.62;45.53;102720.16;5047578;28;20060;-88
2022/10/18 10:57:57;;;;;;;16.35;8.15;;;;;;;17.75;45.45;102715.22;5021290;28;20032;-86
2022/10/18 11:00:43;;;;;;;36.38;10.57;;;;;;;17.90;45.28;102734.63;5056684;28;20057;-84
2022/10/18 11:03:13;;;;;;;21.02;10.80;;;;;;;17.85;44.62;102713.88;5046429;28;20048;-85
2022/10/18 11:05:52;;;;;;;16.30;10.48;;;;;;;17.94;44.99;102702.97;5033728;28;20496;-87
2022/10/18 11:08:39;;;;;;;16.55;9.90;;;;;;;18.09;43.01;102714.47;5035908;28;20028;-85
2022/10/18 11:11:26;;;;;;;21.10;11.52;;;;;;;17.89;43.58;102680.53;5036675;28;20430;-86
2022/10/18 11:14:08;;;;;;;22.52;10.45;;;;;;;18.02;44.00;102671.19;5047408;28;20074;-82
2022/10/18 11:17:07;;;;;;;25.52;10.43;;;;;;;18.31;42.65;102698.59;5052829;28;20037;-82
2022/10/18 11:19:36;;;;;;;20.70;10.50;;;;;;;18.40;42.66;102699.94;5048025;28;20052;-85
2022/10/18 11:22:01;;;;;;;19.38;9.70;;;;;;;18.26;42.04;102674.38;5030223;28;20518;-85
2022/10/18 11:24:27;;;;;;;19.00;9.63;;;;;;;18.42;41.70;102682.34;5030497;28;20111;-86
2022/10/18 11:27:22;;;;;;;18.92;10.15;;;;;;;18.41;41.78;102672.78;5046589;28;20151;-85
2022/10/18 11:30:09;;;;;;;18.60;10.32;;;;;;;18.39;41.86;102651.91;4978407;28;20107;-89
2022/10/18 11:32:40;;;;;;;22.25;11.57;;;;;;;18.37;41.79;102661.59;5028778;28;20087;-86
2022/10/18 11:35:21;;;;;;;128.48;57.15;;;;;;;18.12;42.14;102621.84;5010722;28;20083;-93
2022/10/18 11:38:14;;;;;;;28.10;13.30;;;;;;;17.91;42.11;102601.00;4996737;28;20025;-93
2022/10/18 11:40:51;;;;;;;24.55;11.32;;;;;;;18.07;42.43;102635.13;5027132;28;20025;-88
2022/10/18 11:43:29;;;;;;;18.33;10.23;;;;;;;17.93;42.96;102604.38;5029819;28;20057;-86
2022/10/18 11:46:13;;;;;;;24.50;10.80;;;;;;;18.12;42.38;102629.69;5028105;28;20030;-90
2022/10/18 11:48:47;;;;;;;23.38;9.45;;;;;;;18.13;42.07;102626.16;5028309;28;20437;-94
2022/10/18 11:51:57;;;;;;;32.28;15.82;;;;;;;18.03;42.62;102615.28;5029976;28;20599;-84
2022/10/18 11:54:47;;;;;;;25.20;12.68;;;;;;;17.90;43.24;102583.59;5005420;28;20056;-85
2022/10/18 11:57:33;;;;;;;27.00;12.50;;;;;;;18.15;43.15;102603.34;5029594;28;20022;-88
2022/10/18 12:00:14;;;;;;;22.27;12.50;;;;;;;18.18;42.13;102587.47;5027988;28;20037;-86
2022/10/18 12:02:40;;;;;;;32.58;15.98;;;;;;;18.08;42.00;102571.34;5012023;28;20033;-89
2022/10/18 12:05:05;;;;;;;36.55;16.42;;;;;;;18.28;41.53;102589.53;5029732;28;20403;-89
2022/10/18 12:07:37;;;;;;;34.03;15.88;;;;;;;18.19;40.86;102569.06;5012449;28;20109;-87
2022/10/18 12:10:03;;;;;;;34.07;14.73;;;;;;;18.23;40.41;102575.00;4997346;28;20030;-94
2022/10/18 12:13:00;;;;;;;28.15;14.95;;;;;;;18.30;39.97;102571.16;5012284;28;20034;-89
2022/10/18 12:15:26;;;;;;;27.60;14.48;;;;;;;18.15;39.74;102540.47;5012033;28;20076;-82
2022/10/18 12:17:57;;;;;;;27.95;15.27;;;;;;;18.40;39.67;102563.66;5014729;28;20072;-84
2022/10/18 12:20:29;;;;;;;30.05;15.20;;;;;;;18.31;39.08;102551.88;5015864;28;20036;-81
2022/10/18 12:22:58;;;;;;;;;;;;;;;18.38;39.04;102558.47;5032320;28;20104;-85
2022/10/18 12:25:24;;;;;;;23.77;13.45;;;;;;;18.33;39.25;102544.78;5032053;28;19917;-90
2022/10/18 12:28:14;;;;;;;34.40;17.20;;;;;;;18.39;38.61;102547.09;5018052;28;20457;-94
2022/10/18 12:30:45;;;;;;;31.95;16.73;;;;;;;18.25;38.58;102531.22;5019393;28;20033;-87
2022/10/18 12:33:14;;;;;;;31.60;15.07;;;;;;;18.40;38.40;102540.94;5031168;28;20053;-90
2022/10/18 12:35:59;;;;;;;34.60;15.65;;;;;;;18.27;38.66;102519.72;4997202;28;20038;-88
2022/10/18 12:38:29;;;;;;;40.70;19.52;;;;;;;18.35;39.19;102520.19;5013776;28;20033;-85
2022/10/18 12:40:55;;;;;;;46.92;20.95;;;;;;;18.41;40.07;102516.41;5015480;28;20098;-90
2022/10/18 12:43:26;;;;;;;44.13;22.58;;;;;;;18.55;40.22;102528.78;5014259;28;20550;-80
2022/10/18 12:45:56;;;;;;;54.63;28.15;;;;;;;18.46;39.19;102503.91;5013609;28;20033;-90
2022/10/18 12:48:50;;;;;;;54.72;28.63;;;;;;;18.47;39.16;102510.84;4996992;28;20069;-87
2022/10/18 12:51:19;;;;;;;82.38;44.15;;;;;;;18.51;39.56;102501.06;5016728;28;20029;-85
2022/10/18 12:54:12;;;;;;;97.25;49.30;;;;;;;18.62;39.47;102512.66;5015575;28;20475;-91
2022/10/18 12:56:40;;;;;;;101.28;50.05;;;;;;;18.52;36.95;102497.50;5028538;28;20053;-85
2022/10/18 12:59:15;;;;;;;93.68;49.22;;;;;;;18.59;37.15;102512.00;5015487;28;20099;-85
2022/10/18 13:01:50;;;;;;;93.80;47.33;;;;;;;18.68;37.09;102495.81;5032517;28;20034;-86
2022/10/18 13:04:27;;;;;;;89.72;47.13;;;;;;;18.65;36.86;102506.44;5032604;28;20075;-87
2022/10/18 13:07:30;;;;;;;86.53;45.85;;;;;;;18.65;36.66;102505.59;5030675;28;20163;-83
2022/10/18 13:10:13;;;;;;;79.03;43.95;;;;;;;18.57;36.53;102498.94;5032522;28;20040;-89
2022/10/18 13:13:04;;;;;;;82.55;41.72;;;;;;;18.71;36.14;102493.00;5031128;28;20060;-87
2022/10/18 13:15:40;;;;;;;77.00;39.28;;;;;;;18.71;35.78;102493.00;5029373;28;20107;-86
2022/10/18 13:18:32;;;;;;;81.22;41.75;;;;;;;18.57;35.82;102482.38;5030571;28;20025;-81
2022/10/18 13:21:08;;;;;;;72.22;38.25;;;;;;;18.61;36.31;102482.13;5022650;28;20037;-80
2022/10/18 13:23:49;;;;;;;62.28;34.40;;;;;;;18.69;35.99;102473.06;5030974;28;20116;-86
2022/10/18 13:26:20;;;;;;;62.60;34.42;;;;;;;18.77;36.37;102481.34;5014415;28;20490;-84
2022/10/18 13:29:04;;;;;;;56.88;32.25;;;;;;;18.68;35.77;102460.84;5029867;28;20037;-81
2022/10/18 13:31:43;;;;;;;56.90;31.05;;;;;;;18.76;36.15;102467.38;5031146;28;20112;-81
2022/10/18 13:34:23;;;;;;;55.15;29.98;;;;;;;18.79;36.24;102469.00;5007913;28;20057;-81
2022/10/18 13:37:02;;;;;;;52.72;29.30;;;;;;;18.71;36.36;102448.44;5028844;28;20124;-81
2022/10/18 13:39:27;;;;;;;56.88;27.67;;;;;;;18.82;36.29;102448.69;5030423;28;20040;-79
2022/10/18 13:41:56;;;;;;;47.15;26.90;;;;;;;18.77;36.57;102450.72;5030829;28;20116;-87
2022/10/18 13:44:38;;;;;;;48.85;26.90;;;;;;;18.85;36.43;102453.78;5031998;28;20029;-81
2022/10/18 13:47:04;;;;;;;53.10;27.20;;;;;;;18.77;35.66;102449.88;5029972;28;20414;-85
2022/10/18 13:49:38;;;;;;;51.42;27.42;;;;;;;18.73;36.48;102437.88;5011872;28;20041;-86
2022/10/18 13:52:28;;;;;;;64.20;30.33;;;;;;;18.78;36.83;102441.94;5025279;28;20040;-82
2022/10/18 13:55:21;;;;;;;46.53;25.83;;;;;;;18.81;36.82;102436.53;5031748;28;20091;-84
2022/10/18 13:58:11;;;;;;;54.33;24.27;;;;;;;18.78;37.07;102431.47;5031803;28;20033;-81
2022/10/18 14:01:02;;;;;;;40.92;20.98;;;;;;;18.77;36.40;102424.50;5030836;28;20029;-85
2022/10/18 14:03:37;;;;;;;30.83;16.50;;;;;;;18.77;35.21;102421.03;4994903;28;20045;-82
2022/10/18 14:06:09;;;;;;;29.88;14.75;;;;;;;18.81;35.23;102423.41;5029705;28;20021;-81
2022/10/18 14:08:55;;;;;;;32.33;15.32;;;;;;;18.71;35.42;102392.53;5020192;28;20022;-83
2022/10/18 14:11:37;;;;;;;29.40;13.45;;;;;;;18.82;35.54;102408.53;5024040;28;20034;-87
2022/10/18 14:14:40;;;;;;;22.17;12.52;;;;;;;18.92;35.74;102422.81;5026199;28;20095;-86
2022/10/18 14:17:32;;;;;;;18.27;11.23;;;;;;;18.68;35.61;102369.09;5027116;28;20026;-85
2022/10/18 14:20:16;;;;;;;19.63;10.70;;;;;;;19.07;35.25;102408.81;5028319;28;20033;-87
2022/10/18 14:23:01;;;;;;;21.92;11.07;;;;;;;19.30;35.27;102399.66;5029770;28;20079;-88
2022/10/18 14:25:32;;;;;;;18.13;9.30;;;;;;;19.48;34.68;102389.88;5026452;28;20485;-90
2022/10/18 14:28:18;;;;;;;19.88;10.02;;;;;;;19.96;34.01;102396.66;5011673;28;20032;-88
2022/10/18 14:31:05;;;;;;;24.10;9.68;;;;;;;20.15;33.97;102392.88;5013531;28;20052;-87
2022/10/18 14:33:44;;;;;;;22.73;9.63;;;;;;;19.80;34.65;102395.03;5013397;28;20522;-85
2022/10/18 14:36:19;;;;;;;17.75;9.18;;;;;;;19.95;33.87;102388.84;5011951;28;20025;-79
2022/10/18 14:38:50;;;;;;;14.57;7.70;;;;;;;19.92;33.38;102378.53;5030825;28;20128;-86
2022/10/18 14:41:17;;;;;;;18.38;7.47;;;;;;;19.91;33.12;102379.47;5009420;28;20034;-83
2022/10/18 14:43:43;;;;;;;15.55;8.13;;;;;;;19.76;33.97;102358.47;5004396;28;20137;-82
2022/10/18 14:46:10;;;;;;;15.38;7.95;;;;;;;19.65;34.13;102366.13;5013444;28;20022;-84
2022/10/18 14:48:35;;;;;;;12.68;6.90;;;;;;;19.46;34.46;102370.72;5011899;28;20029;-85
2022/10/18 14:51:01;;;;;;;13.15;7.07;;;;;;;19.20;34.90;102365.25;5027240;28;20483;-83
2022/10/18 14:53:31;;;;;;;14.18;7.50;;;;;;;19.13;34.83;102361.28;5029294;28;20071;-83
2022/10/18 14:56:00;;;;;;;20.33;7.07;;;;;;;19.02;35.76;102349.72;5028837;28;20517;-82
2022/10/18 14:58:26;;;;;;;13.02;6.72;;;;;;;19.58;35.23;102341.19;5013136;28;20467;-82
2022/10/18 15:00:51;;;;;;;14.80;7.32;;;;;;;19.89;34.61;102336.72;5013033;28;20022;-82
2022/10/18 15:03:17;;;;;;;11.23;6.60;;;;;;;19.85;34.80;102362.28;5013101;28;20095;-81
2022/10/18 15:05:53;;;;;;;12.05;7.10;;;;;;;19.73;35.09;102363.03;5029289;28;20581;-81
2022/10/18 15:08:19;;;;;;;16.35;7.78;;;;;;;19.22;35.57;102330.19;5029378;28;20022;-81
2022/10/18 15:10:44;;;;;;;13.27;7.47;;;;;;;18.87;36.11;102297.19;5028885;28;20108;-82
